Hitchcock, South Dakota
Current Conditions -  °F | °C
As of 9:55 AM on Friday 21 Nov 2014 (Local Time) from KHON Reporting Station
Clear Clear  
Wind Chill: 13°   Ceiling: Unl
Heat Index: 25°   Visibility: 7mi
Dew Point: 18°   Wind: 15mph
Humidity: 75%   Direction: 170°S
Pressure: 29.92"   Gusts: 25mph
Location:  44.63°N, 98.41°W
Report Text: KHON 211555Z AUTO 17013G22KT 7SM CLR M04/M08 A2992 RMK AO2 SLP155 T10391078
Loading
Personal Weather Stations






























Interactive Weather Map New forecast layout! Learn more

10-Day Weather Forecast

Advertisements
Track Severe Weather on mobile